Time;durP1;ratioP1;P1;durP2;ratioP2;P2;SDS_P1;SDS_P2;PMS_P1;PMS_P2;Temp;Humidity;BMP_temperature;BMP_pressure;BME280_temperature;BME280_humidity;BME280_pressure;Samples;Min_cycle;Max_cycle;Signal;HPM_P1;HPM_P2
2023/09/15 03:19:06;;;;;;;5.90;2.20;;;;;;;16.66;66.91;100847.41;4273524;26;20237;-79
2023/09/15 05:44:18;;;;;;;6.97;2.70;;;;;;;15.93;69.63;100850.44;4800615;29;20878;-78
2023/09/15 05:47:44;;;;;;;8.90;3.37;;;;;;;15.99;69.65;100849.78;4852317;29;20209;-76
2023/09/15 05:54:00;;;;;;;10.13;2.80;;;;;;;16.01;69.73;100855.75;4831192;29;20307;-76
2023/09/15 06:54:23;;;;;;;13.10;3.90;;;;;;;16.66;69.39;100858.13;4986325;23;20414;-74
2023/09/15 06:56:51;;;;;;;8.40;3.17;;;;;;;16.68;69.82;100856.09;4937998;28;20298;-76
2023/09/15 06:59:23;;;;;;;10.80;3.37;;;;;;;16.71;69.62;100858.41;4940538;28;20271;-71
2023/09/15 07:01:51;;;;;;;9.43;3.80;;;;;;;16.76;69.54;100863.25;4941367;29;20211;-74
2023/09/15 07:04:21;;;;;;;11.87;3.77;;;;;;;16.82;69.52;100863.34;4941504;28;20212;-77
2023/09/15 07:06:50;;;;;;;11.97;3.70;;;;;;;16.85;70.40;100862.16;4940259;28;20207;-73
2023/09/15 07:09:19;;;;;;;8.97;3.60;;;;;;;16.86;69.59;100869.19;4942366;29;20207;-73
2023/09/15 07:11:47;;;;;;;7.43;3.70;;;;;;;16.93;69.82;100867.44;4944626;29;20242;-70
2023/09/15 07:14:16;;;;;;;7.73;3.40;;;;;;;17.00;69.37;100865.72;4942838;28;20239;-73
2023/09/15 07:16:44;;;;;;;8.37;3.03;;;;;;;17.04;69.39;100860.84;4942938;29;20565;-71
2023/09/15 07:19:18;;;;;;;10.90;3.70;;;;;;;17.08;69.03;100864.81;4942139;28;20204;-73
2023/09/15 07:21:48;;;;;;;9.70;3.47;;;;;;;17.10;69.45;100862.78;4946902;28;20215;-72
2023/09/15 07:24:16;;;;;;;9.50;3.50;;;;;;;17.14;68.83;100870.31;4945318;29;20211;-68
2023/09/15 07:26:49;;;;;;;10.07;3.67;;;;;;;17.18;69.07;100870.75;4941907;29;20210;-74
2023/09/15 07:29:17;;;;;;;10.37;3.60;;;;;;;17.20;69.43;100860.69;4940243;28;20207;-74
2023/09/15 07:31:46;;;;;;;11.73;3.77;;;;;;;17.26;69.27;100859.97;4945392;28;20239;-73
2023/09/15 07:34:15;;;;;;;7.03;3.43;;;;;;;17.31;69.39;100865.63;4941419;29;20313;-74
2023/09/15 07:36:50;;;;;;;10.50;3.63;;;;;;;17.38;69.60;100861.19;4946026;28;20556;-75
2023/09/15 07:39:20;;;;;;;7.30;4.10;;;;;;;17.42;70.15;100851.75;4944584;28;20223;-76
2023/09/15 07:41:49;;;;;;;9.70;3.40;;;;;;;17.47;70.02;100854.72;4933404;28;20246;-78
2023/09/15 07:44:18;;;;;;;12.53;4.73;;;;;;;17.53;69.26;100851.31;4919102;29;20215;-76
2023/09/15 07:46:49;;;;;;;19.50;4.60;;;;;;;17.59;68.71;100849.75;4923410;29;20224;-78
2023/09/15 07:49:19;;;;;;;13.90;4.20;;;;;;;17.64;68.78;100845.53;4919107;29;20213;-76
2023/09/15 07:52:14;;;;;;;8.23;4.33;;;;;;;17.71;68.94;100848.28;4921647;29;20202;-72
2023/09/15 07:54:46;;;;;;;9.83;3.50;;;;;;;17.75;68.58;100846.09;4916689;28;20237;-75
2023/09/15 07:57:15;;;;;;;12.03;4.70;;;;;;;17.83;68.12;100849.50;4919663;29;20205;-76
2023/09/15 07:59:44;;;;;;;8.90;3.93;;;;;;;17.92;68.56;100850.22;4922778;29;20223;-72
2023/09/15 08:02:13;;;;;;;9.53;3.50;;;;;;;18.00;68.66;100852.81;4921838;29;20685;-76
2023/09/15 08:04:43;;;;;;;10.63;4.03;;;;;;;18.08;68.58;100844.66;4922307;29;20215;-75
2023/09/15 08:07:14;;;;;;;9.53;3.57;;;;;;;18.17;68.20;100843.53;4920952;29;20208;-76
2023/09/15 08:09:46;;;;;;;7.17;3.37;;;;;;;18.31;68.05;100847.19;4923558;29;20204;-76
2023/09/15 08:12:19;;;;;;;9.03;3.60;;;;;;;18.41;66.85;100834.28;4926711;29;20205;-69
2023/09/15 08:15:51;;;;;;;12.83;3.67;;;;;;;18.62;67.11;100837.03;4926947;29;20230;-74
2023/09/15 08:18:35;;;;;;;7.50;3.60;;;;;;;18.90;66.12;100839.78;4885716;28;20212;-74
2023/09/15 08:21:04;;;;;;;8.13;3.10;;;;;;;19.31;64.76;100831.81;4931378;29;20200;-70
2023/09/15 08:23:40;;;;;;;9.53;4.53;;;;;;;19.83;62.81;100831.34;4927830;28;20220;-69
2023/09/15 08:26:25;;;;;;;12.97;4.60;;;;;;;20.40;61.07;100838.22;4905493;28;20331;-69
2023/09/15 08:29:11;;;;;;;9.87;4.33;;;;;;;21.16;58.19;100832.47;4916216;29;20266;-73
2023/09/15 08:31:43;;;;;;;8.17;4.00;;;;;;;22.28;55.05;100835.75;4917229;29;20288;-78
2023/09/15 08:34:13;;;;;;;10.73;3.70;;;;;;;24.21;49.77;100826.53;4917415;29;20656;-74
2023/09/15 08:36:44;;;;;;;7.43;3.43;;;;;;;27.06;42.99;100823.66;4917448;29;20658;-75
2023/09/15 08:39:20;;;;;;;9.45;3.85;;;;;;;30.48;36.48;100819.13;4917799;29;20298;-76
2023/09/15 08:42:10;;;;;;;7.82;3.22;;;;;;;33.70;31.23;100818.94;4916697;29;20296;-77
2023/09/15 08:47:31;;;;;;;6.68;3.20;;;;;;;37.40;26.01;100808.97;4918599;29;20777;-75
2023/09/15 08:50:09;;;;;;;6.28;3.30;;;;;;;38.75;24.44;100810.69;4919231;29;20227;-72
2023/09/15 08:52:45;;;;;;;9.45;3.55;;;;;;;39.94;23.48;100801.44;4916165;29;20894;-73
2023/09/15 08:55:18;;;;;;;20.33;3.63;;;;;;;40.93;22.04;100792.09;4916932;29;20232;-76
2023/09/15 09:00:59;;;;;;;;;;;;;;;;;;;;;
2023/09/15 09:04:00;;;;;;;11.50;3.80;;;;;;;43.71;19.51;100790.75;4918854;29;20219;-74
2023/09/15 09:06:32;;;;;;;7.60;4.10;;;;;;;44.67;18.61;100787.22;4917416;29;20395;-74
2023/09/15 09:09:01;;;;;;;7.32;3.58;;;;;;;45.43;17.82;100776.97;4918505;29;20646;-76
2023/09/15 09:11:29;;;;;;;9.60;3.38;;;;;;;45.80;17.75;100779.13;4918335;29;20209;-77
2023/09/15 09:14:11;;;;;;;6.18;3.10;;;;;;;46.02;16.98;100773.47;4922900;29;20208;-76
2023/09/15 09:16:44;;;;;;;5.95;3.17;;;;;;;42.47;20.02;100784.72;4919837;29;20297;-72
2023/09/15 09:22:12;;;;;;;5.97;2.92;;;;;;;38.21;24.13;100773.41;4915452;29;20210;-77
2023/09/15 09:24:41;;;;;;;6.03;2.92;;;;;;;37.69;24.11;100780.78;4916387;29;20216;-76
2023/09/15 09:27:11;;;;;;;6.85;3.28;;;;;;;38.80;23.07;100777.25;4916788;29;20214;-72
2023/09/15 09:29:41;;;;;;;9.43;3.63;;;;;;;39.54;22.80;100776.84;4919042;29;20204;-70
2023/09/15 09:32:25;;;;;;;7.10;3.50;;;;;;;38.32;23.77;100769.97;4917841;29;20231;-72
2023/09/15 09:34:55;;;;;;;6.60;3.72;;;;;;;37.28;24.70;100771.72;4915412;29;20259;-75
2023/09/15 09:37:26;;;;;;;6.45;3.55;;;;;;;37.84;24.61;100769.25;4914045;29;20774;-74
2023/09/15 09:39:55;;;;;;;7.63;4.32;;;;;;;37.53;24.78;100766.56;4917352;29;20295;-78
2023/09/15 09:42:25;;;;;;;8.55;4.32;;;;;;;35.64;26.95;100768.72;4917595;29;20767;-76
2023/09/15 09:44:55;;;;;;;5.57;3.35;;;;;;;35.06;27.81;100769.31;4916547;29;20385;-78
2023/09/15 09:47:25;;;;;;;5.72;3.70;;;;;;;32.49;30.58;100762.13;4919766;29;20216;-73
2023/09/15 09:49:54;;;;;;;7.35;3.40;;;;;;;30.04;34.39;100762.13;4921355;29;20827;-73
2023/09/15 09:52:37;;;;;;;6.13;3.00;;;;;;;27.96;38.04;100762.53;4917380;29;20290;-78
2023/09/15 09:55:09;;;;;;;4.95;3.15;;;;;;;26.56;41.40;100767.28;4917980;29;20330;-70
2023/09/15 09:57:38;;;;;;;5.88;3.22;;;;;;;25.59;43.65;100763.78;4917461;29;20208;-74
2023/09/15 10:00:10;;;;;;;6.13;3.35;;;;;;;24.81;45.94;100760.56;4919290;29;20886;-75
2023/09/15 10:02:42;;;;;;;6.75;3.70;;;;;;;24.22;46.80;100765.88;4920376;29;20374;-70
2023/09/15 10:05:13;;;;;;;6.63;3.75;;;;;;;24.44;47.23;100762.66;4921794;29;20651;-80
2023/09/15 10:07:58;;;;;;;8.52;3.33;;;;;;;24.55;46.66;100762.66;4919571;29;20282;-74
2023/09/15 10:10:32;;;;;;;8.93;3.47;;;;;;;24.42;47.07;100762.06;4922504;29;20217;-78
2023/09/15 10:13:01;;;;;;;4.82;3.30;;;;;;;23.97;47.88;100762.44;4917134;29;20308;-75
2023/09/15 10:15:31;;;;;;;6.18;3.75;;;;;;;23.49;49.45;100760.53;4917407;29;20633;-75
2023/09/15 10:17:59;;;;;;;11.88;3.58;;;;;;;23.12;51.33;100754.25;4915454;29;20248;-75
2023/09/15 10:20:31;;;;;;;10.02;3.60;;;;;;;22.90;52.04;100758.41;4915633;29;20628;-74
2023/09/15 10:23:06;;;;;;;8.55;3.30;;;;;;;22.74;52.92;100746.28;4914675;29;20208;-71
2023/09/15 10:25:48;;;;;;;6.22;3.28;;;;;;;22.63;53.39;100749.66;4918944;29;20204;-77
2023/09/15 10:28:20;;;;;;;5.22;3.38;;;;;;;22.53;54.28;100744.75;4916010;29;20205;-80
2023/09/15 10:31:12;;;;;;;6.97;3.55;;;;;;;22.49;55.03;100737.31;4917216;29;20267;-78
2023/09/15 10:33:41;;;;;;;5.88;3.75;;;;;;;22.43;55.21;100735.47;4918296;29;22235;-67
2023/09/15 10:36:13;;;;;;;6.65;3.45;;;;;;;22.44;55.76;100726.31;4933231;28;20216;-75
2023/09/15 10:38:54;;;;;;;9.38;3.90;;;;;;;22.69;55.31;100718.25;4967460;23;20215;-80
2023/09/15 10:41:26;;;;;;;8.25;4.32;;;;;;;23.02;54.75;100720.66;4953819;28;20206;-76
2023/09/15 10:43:55;;;;;;;7.28;4.32;;;;;;;24.05;52.79;100717.97;4930867;29;20840;-72
2023/09/15 10:46:35;;;;;;;7.78;3.92;;;;;;;24.95;49.86;100711.34;4928150;29;20212;-74
2023/09/15 10:49:14;;;;;;;8.70;5.07;;;;;;;24.75;49.89;100706.22;4925618;29;20442;-76
2023/09/15 10:51:53;;;;;;;7.20;4.18;;;;;;;24.36;51.05;100707.69;4922403;29;20316;-79
2023/09/15 10:54:24;;;;;;;8.45;5.00;;;;;;;24.07;52.01;100707.72;4923738;29;20211;-76
2023/09/15 10:56:53;;;;;;;9.30;5.05;;;;;;;24.31;51.91;100704.03;4931352;29;20791;-75
2023/09/15 10:59:22;;;;;;;7.68;4.75;;;;;;;24.44;51.35;100697.59;4930926;29;20216;-76
2023/09/15 11:02:06;;;;;;;9.98;6.00;;;;;;;24.45;51.25;100696.56;4927267;29;20212;-74
2023/09/15 11:04:41;;;;;;;7.65;5.47;;;;;;;24.54;50.67;100687.81;4925673;29;20551;-76
2023/09/15 11:07:10;;;;;;;7.80;5.63;;;;;;;24.98;49.68;100694.56;4923089;29;20219;-71
2023/09/15 11:09:42;;;;;;;6.53;4.43;;;;;;;25.28;49.64;100694.41;4923089;29;21204;-76
2023/09/15 11:12:12;;;;;;;9.93;6.68;;;;;;;25.19;49.86;100682.28;4927773;29;20213;-74
2023/09/15 11:14:40;;;;;;;6.38;4.80;;;;;;;25.13;49.81;100685.13;4926047;29;20220;-78
2023/09/15 11:17:10;;;;;;;11.68;6.57;;;;;;;25.20;50.21;100681.22;4922903;29;20232;-79
2023/09/15 11:19:39;;;;;;;10.40;6.32;;;;;;;25.35;49.70;100676.09;4923604;29;20219;-80
2023/09/15 11:22:08;;;;;;;7.65;5.85;;;;;;;25.65;49.62;100675.94;4922836;29;20208;-76
2023/09/15 11:24:36;;;;;;;7.95;5.93;;;;;;;27.50;45.52;100665.78;4924886;29;20208;-74
2023/09/15 11:27:05;;;;;;;8.82;5.68;;;;;;;27.74;44.73;100664.44;4919725;29;20216;-79
2023/09/15 11:29:33;;;;;;;7.70;4.72;;;;;;;27.75;44.70;100657.94;4920088;29;20201;-76
2023/09/15 11:32:05;;;;;;;8.80;5.70;;;;;;;29.91;41.28;100650.53;4923621;29;20212;-76
2023/09/15 11:34:36;;;;;;;7.25;5.07;;;;;;;32.69;35.84;100640.38;4920355;29;20216;-75
2023/09/15 11:37:05;;;;;;;8.63;5.47;;;;;;;33.35;34.30;100647.84;4919498;29;20228;-71
2023/09/15 11:39:36;;;;;;;8.85;4.65;;;;;;;33.97;33.21;100648.63;4920216;29;20228;-71
2023/09/15 11:42:12;;;;;;;6.55;4.07;;;;;;;34.19;32.47;100650.75;4917991;29;20237;-75
2023/09/15 11:44:40;;;;;;;5.00;3.40;;;;;;;33.87;32.14;100646.00;4920213;29;20215;-72
2023/09/15 11:47:08;;;;;;;6.72;3.78;;;;;;;32.81;34.17;100639.94;4918895;29;20213;-77
2023/09/15 11:49:39;;;;;;;15.75;4.60;;;;;;;32.42;34.75;100635.41;4919307;29;20213;-79
2023/09/15 11:52:08;;;;;;;9.50;4.13;;;;;;;32.27;35.31;100635.53;4919525;29;20212;-74
2023/09/15 11:54:37;;;;;;;5.72;3.47;;;;;;;31.96;35.43;100636.84;4918212;29;20211;-75
2023/09/15 11:57:05;;;;;;;4.88;3.55;;;;;;;31.76;36.14;100627.66;4919143;29;20250;-73
2023/09/15 11:59:33;;;;;;;8.55;3.33;;;;;;;31.85;35.83;100619.66;4918930;29;21003;-74
2023/09/15 12:02:02;;;;;;;8.40;3.95;;;;;;;32.15;35.33;100624.09;4920371;29;20213;-73
2023/09/15 12:04:31;;;;;;;6.95;4.18;;;;;;;31.93;35.81;100621.00;4919358;29;20824;-71
2023/09/15 12:07:01;;;;;;;5.47;4.53;;;;;;;31.14;36.88;100622.78;4916767;29;20660;-69
2023/09/15 12:09:29;;;;;;;8.88;4.05;;;;;;;30.88;37.09;100619.28;4916454;29;20226;-74
2023/09/15 12:11:59;;;;;;;8.88;4.32;;;;;;;31.16;37.27;100608.81;4915772;29;20304;-75
2023/09/15 12:14:28;;;;;;;8.88;6.25;;;;;;;32.57;35.57;100608.91;4917206;29;20248;-73
2023/09/15 12:16:58;;;;;;;7.38;4.88;;;;;;;34.63;32.79;100606.22;4920590;29;20224;-74
2023/09/15 12:19:27;;;;;;;6.88;4.72;;;;;;;35.23;31.74;100595.06;4918920;29;20208;-72
2023/09/15 12:21:59;;;;;;;10.45;4.93;;;;;;;33.53;33.83;100594.81;4919398;29;20220;-74
2023/09/15 12:24:29;;;;;;;6.97;4.10;;;;;;;31.80;35.54;100592.28;4921134;29;20212;-74
2023/09/15 12:27:00;;;;;;;7.43;3.97;;;;;;;30.14;37.50;100589.88;4920597;29;20215;-75
2023/09/15 12:29:33;;;;;;;10.43;4.47;;;;;;;28.83;40.87;100589.53;4922106;29;20204;-73
2023/09/15 12:32:04;;;;;;;7.30;4.18;;;;;;;27.92;42.56;100582.34;4918913;29;20331;-72
2023/09/15 12:34:35;;;;;;;11.75;4.90;;;;;;;27.35;44.62;100582.81;4920108;29;20220;-71
2023/09/15 12:37:08;;;;;;;8.18;4.22;;;;;;;26.94;45.42;100576.09;4914172;29;20276;-76
2023/09/15 12:39:38;;;;;;;5.32;4.00;;;;;;;26.51;46.11;100573.31;4918097;29;20216;-72
2023/09/15 12:42:06;;;;;;;6.32;3.47;;;;;;;26.24;46.68;100575.88;4919666;29;20239;-79
2023/09/15 12:44:42;;;;;;;4.82;3.70;;;;;;;26.02;47.05;100570.38;4917424;29;20246;-76
2023/09/15 12:47:14;;;;;;;6.93;3.90;;;;;;;26.01;47.39;100557.88;4917306;29;20215;-75
2023/09/15 12:49:44;;;;;;;7.32;4.72;;;;;;;25.74;48.36;100557.69;4920090;29;20777;-75
2023/09/15 12:52:13;;;;;;;7.10;4.38;;;;;;;25.49;49.04;100554.50;4920034;29;20224;-78
2023/09/15 12:54:43;;;;;;;6.80;4.50;;;;;;;25.28;49.41;100557.88;4922347;29;20203;-76
2023/09/15 12:57:11;;;;;;;9.98;5.47;;;;;;;25.09;50.07;100549.94;4920959;29;20228;-74
2023/09/15 12:59:40;;;;;;;7.30;5.45;;;;;;;24.95;50.43;100547.75;4920581;29;20259;-72
2023/09/15 13:02:08;;;;;;;8.57;5.10;;;;;;;24.89;50.81;100551.41;4918637;29;20204;-74
2023/09/15 13:04:39;;;;;;;7.78;4.60;;;;;;;24.80;51.39;100545.53;4920622;29;20208;-75
2023/09/15 13:07:07;;;;;;;6.97;4.47;;;;;;;24.83;50.53;100546.91;4920189;29;20666;-73
2023/09/15 13:09:36;;;;;;;6.45;4.05;;;;;;;24.77;50.36;100534.31;4918412;29;20212;-73
2023/09/15 13:12:06;;;;;;;8.88;4.90;;;;;;;24.71;51.55;100539.66;4921123;29;20204;-71
2023/09/15 13:14:34;;;;;;;7.13;4.22;;;;;;;24.70;51.51;100534.47;4919401;29;20217;-74
2023/09/15 13:17:04;;;;;;;13.43;7.43;;;;;;;24.64;51.82;100538.94;4918895;29;20366;-76
2023/09/15 13:19:32;;;;;;;15.35;8.55;;;;;;;24.55;52.86;100531.41;4916041;29;20217;-73
2023/09/15 13:22:03;;;;;;;12.52;5.95;;;;;;;24.51;52.74;100524.84;4921769;29;20212;-76
2023/09/15 13:24:31;;;;;;;8.73;4.50;;;;;;;24.45;52.54;100520.38;4917019;29;20394;-76
2023/09/15 13:27:00;;;;;;;7.78;4.68;;;;;;;24.43;53.17;100517.06;4920302;29;20227;-81
2023/09/15 13:29:30;;;;;;;11.13;4.53;;;;;;;24.38;53.78;100515.06;4920599;29;20794;-74
2023/09/15 13:31:58;;;;;;;8.43;4.55;;;;;;;24.37;53.82;100521.53;4916499;29;20236;-71
2023/09/15 13:34:26;;;;;;;8.10;4.32;;;;;;;24.36;53.16;100509.88;4916987;29;20215;-71
2023/09/15 13:36:54;;;;;;;8.32;4.15;;;;;;;24.34;53.00;100509.31;4918442;29;20617;-72
2023/09/15 13:39:23;;;;;;;6.93;4.80;;;;;;;24.36;52.76;100501.72;4917740;29;20213;-71
2023/09/15 13:41:51;;;;;;;9.13;4.28;;;;;;;24.36;52.71;100507.16;4919634;29;20996;-71
2023/09/15 13:44:19;;;;;;;7.97;4.72;;;;;;;24.38;53.17;100504.22;4916466;29;20711;-79
2023/09/15 13:46:49;;;;;;;8.93;3.95;;;;;;;24.43;53.60;100500.81;4918020;29;20205;-74
2023/09/15 13:49:17;;;;;;;9.80;4.05;;;;;;;24.41;54.14;100500.22;4915079;29;20236;-73
2023/09/15 13:51:45;;;;;;;10.48;4.25;;;;;;;24.41;54.67;100498.31;4916276;29;20212;-72
2023/09/15 13:54:13;;;;;;;10.60;4.20;;;;;;;24.45;54.02;100493.28;4918046;29;20968;-76
2023/09/15 13:56:41;;;;;;;6.45;4.13;;;;;;;24.41;53.99;100492.09;4917468;29;20211;-74
2023/09/15 13:59:09;;;;;;;10.00;5.05;;;;;;;24.38;54.31;100486.06;4916077;29;20254;-80
2023/09/15 14:01:39;;;;;;;10.27;4.80;;;;;;;24.40;54.08;100483.13;4918069;29;20204;-74
2023/09/15 14:04:10;;;;;;;5.93;4.03;;;;;;;24.39;53.91;100484.19;4917843;29;20212;-77
2023/09/15 14:06:39;;;;;;;5.32;4.05;;;;;;;24.37;53.32;100489.00;4919488;29;20243;-80
2023/09/15 14:09:08;;;;;;;11.85;4.38;;;;;;;24.35;53.67;100483.84;4921054;29;20295;-70
2023/09/15 14:11:42;;;;;;;6.45;3.65;;;;;;;24.36;53.91;100479.25;4918555;29;20789;-76
2023/09/15 14:14:10;;;;;;;6.50;4.30;;;;;;;24.32;53.58;100483.50;4916165;29;20220;-73
2023/09/15 14:16:39;;;;;;;7.03;3.78;;;;;;;24.31;53.67;100481.84;4914118;29;20216;-69
2023/09/15 14:19:06;;;;;;;8.10;4.00;;;;;;;24.29;53.69;100478.53;4915669;29;20235;-71
2023/09/15 14:21:36;;;;;;;5.28;4.00;;;;;;;24.29;53.18;100479.38;4916099;29;20227;-67
2023/09/15 14:24:05;;;;;;;6.88;3.53;;;;;;;24.24;52.90;100473.84;4919873;29;20213;-76
2023/09/15 14:26:33;;;;;;;5.68;3.78;;;;;;;24.26;52.96;100470.91;4917521;29;20204;-75
2023/09/15 14:29:02;;;;;;;6.55;3.63;;;;;;;24.24;52.09;100470.31;4916002;29;20208;-77
2023/09/15 14:31:32;;;;;;;4.68;3.00;;;;;;;24.23;51.62;100464.06;4918051;29;20214;-77
2023/09/15 14:34:01;;;;;;;6.32;3.30;;;;;;;24.23;51.66;100463.25;4918649;29;20218;-72
2023/09/15 14:36:29;;;;;;;6.30;3.58;;;;;;;24.23;52.25;100469.50;4918781;29;20205;-75
2023/09/15 14:39:07;;;;;;;5.85;3.55;;;;;;;24.24;52.19;100465.72;4918149;29;20236;-73
2023/09/15 14:41:37;;;;;;;6.40;3.65;;;;;;;24.23;52.83;100463.25;4917694;29;20228;-77
2023/09/15 14:44:07;;;;;;;8.10;3.90;;;;;;;24.18;52.90;100466.66;4918575;29;20220;-74
2023/09/15 14:46:36;;;;;;;6.82;3.35;;;;;;;24.14;52.13;100454.63;4920284;29;20215;-79
2023/09/15 14:49:04;;;;;;;5.18;3.22;;;;;;;24.13;51.62;100455.69;4920148;29;20204;-71
2023/09/15 14:51:35;;;;;;;4.65;3.10;;;;;;;24.11;51.71;100449.66;4920099;29;20258;-75
2023/09/15 14:54:06;;;;;;;7.80;4.25;;;;;;;24.07;51.83;100448.50;4920292;29;20208;-78
2023/09/15 14:56:34;;;;;;;7.03;3.80;;;;;;;24.06;52.26;100446.03;4919771;29;20212;-79
2023/09/15 14:59:02;;;;;;;6.32;3.38;;;;;;;24.04;52.45;100442.72;4917901;29;20221;-76
2023/09/15 15:01:30;;;;;;;6.38;3.50;;;;;;;23.97;52.29;100442.88;4919176;29;20215;-68
2023/09/15 15:03:58;;;;;;;5.43;3.42;;;;;;;23.92;52.37;100440.06;4919909;29;20220;-73
2023/09/15 15:06:26;;;;;;;5.72;3.42;;;;;;;23.90;52.68;100439.47;4918962;29;20208;-71
2023/09/15 15:08:55;;;;;;;5.07;3.13;;;;;;;23.91;52.94;100430.28;4919910;29;20226;-74
2023/09/15 15:11:24;;;;;;;9.35;4.20;;;;;;;23.91;52.93;100435.69;4919590;29;20723;-70
2023/09/15 15:13:52;;;;;;;9.57;3.45;;;;;;;;;;4921772;29;20227;-75
2023/09/15 15:16:20;;;;;;;4.47;3.28;;;;;;;23.99;52.77;100435.34;4920057;29;20409;-69
2023/09/15 15:18:49;;;;;;;9.05;3.47;;;;;;;23.98;52.55;100426.38;4917646;29;20225;-74
2023/09/15 15:21:30;;;;;;;5.57;3.70;;;;;;;23.98;51.96;100425.56;4921453;29;20210;-76
2023/09/15 15:23:58;;;;;;;6.07;3.28;;;;;;;23.98;52.47;100428.25;4919208;29;20295;-81
2023/09/15 15:26:27;;;;;;;7.20;3.63;;;;;;;23.93;52.30;100420.00;4917705;29;20224;-79
2023/09/15 15:28:56;;;;;;;5.00;3.25;;;;;;;23.90;52.39;100417.78;4920251;29;20911;-75
2023/09/15 15:31:24;;;;;;;5.40;3.45;;;;;;;23.89;51.93;100421.56;4923836;29;20207;-70
2023/09/15 15:33:53;;;;;;;10.95;3.92;;;;;;;23.90;51.86;100417.78;4927411;29;20298;-76
2023/09/15 15:36:22;;;;;;;5.18;3.25;;;;;;;23.86;51.89;100414.72;4926010;29;20311;-70
2023/09/15 15:38:50;;;;;;;6.25;4.00;;;;;;;23.84;51.84;100410.59;4917446;29;20262;-76
2023/09/15 15:41:18;;;;;;;6.18;3.30;;;;;;;23.83;51.61;100414.38;4919342;29;20883;-77
2023/09/15 15:43:48;;;;;;;5.43;3.15;;;;;;;23.81;51.74;100408.38;4918626;29;20589;-77
2023/09/15 15:46:15;;;;;;;4.70;3.05;;;;;;;23.81;51.99;100406.50;4918672;29;20243;-75
2023/09/15 15:48:44;;;;;;;5.60;3.95;;;;;;;23.80;51.92;100412.16;4920792;29;20231;-74
2023/09/15 15:51:12;;;;;;;8.75;4.22;;;;;;;23.78;51.91;100404.25;4919690;29;20208;-71
2023/09/15 15:53:44;;;;;;;6.20;2.97;;;;;;;23.78;51.08;100404.25;4918939;29;20216;-73
2023/09/15 15:56:12;;;;;;;13.38;3.50;;;;;;;23.78;51.22;100406.13;4917287;29;20213;-74
2023/09/15 15:58:41;;;;;;;9.60;3.17;;;;;;;23.79;51.17;100399.66;4922069;29;20288;-74
2023/09/15 16:01:11;;;;;;;6.22;3.10;;;;;;;23.77;51.32;100408.00;4921834;29;20212;-73
2023/09/15 16:03:40;;;;;;;6.60;4.10;;;;;;;23.78;51.46;100406.13;4919924;29;20215;-74
2023/09/15 16:10:29;;;;;;;4.15;2.88;;;;;;;23.71;52.05;100400.03;4920667;29;20207;-72
2023/09/15 16:13:17;;;;;;;5.38;2.80;;;;;;;23.69;52.05;100396.72;4922999;29;20204;-73
2023/09/15 16:16:31;;;;;;;5.93;2.75;;;;;;;23.65;51.48;100400.97;4924230;29;20830;-73
2023/09/15 16:19:12;;;;;;;5.82;3.25;;;;;;;23.60;51.84;100393.53;4924389;29;20235;-73
2023/09/15 16:21:46;;;;;;;5.70;2.92;;;;;;;23.58;51.96;100395.66;4924359;29;20196;-70
2023/09/15 16:24:49;;;;;;;6.28;3.55;;;;;;;23.56;52.20;100382.38;4921401;29;20204;-75
2023/09/15 16:37:42;;;;;;;7.28;3.05;;;;;;;23.46;52.45;100392.94;4919146;29;20204;-71
2023/09/15 16:45:57;;;;;;;6.13;3.33;;;;;;;23.43;53.07;100387.97;4919757;29;20211;-74
2023/09/15 17:05:38;;;;;;;14.13;3.88;;;;;;;23.26;54.42;100378.91;4919996;29;20582;-74
2023/09/15 17:17:48;;;;;;;6.60;2.88;;;;;;;23.14;55.29;100367.22;4922278;29;20224;-76
2023/09/15 17:23:38;;;;;;;6.65;4.47;;;;;;;23.04;55.43;100367.00;4925304;29;20213;-72
2023/09/15 17:27:02;;;;;;;12.55;3.40;;;;;;;23.00;55.83;100372.03;4921940;29;20199;-70
2023/09/15 17:56:56;;;;;;;8.18;3.72;;;;;;;22.52;59.62;100375.59;4934611;29;20627;-73
2023/09/15 18:11:31;;;;;;;7.60;4.10;;;;;;;22.35;61.51;100379.16;4876690;29;20240;-71
2023/09/15 18:14:12;;;;;;;13.60;3.95;;;;;;;22.31;61.84;100375.25;4920189;29;20920;-72
2023/09/15 18:17:07;;;;;;;8.95;3.90;;;;;;;22.29;62.20;100385.47;4923638;29;20218;-78
2023/09/15 18:19:51;;;;;;;9.10;3.78;;;;;;;22.26;62.15;100385.91;4919697;29;20264;-74
2023/09/15 18:22:20;;;;;;;6.90;4.17;;;;;;;22.23;62.79;100386.38;4920351;29;20209;-76
2023/09/15 18:24:50;;;;;;;11.77;4.43;;;;;;;22.21;63.20;100391.16;4922829;29;20232;-73
2023/09/15 18:27:20;;;;;;;7.97;4.20;;;;;;;22.18;63.01;100388.91;4916705;29;20301;-75
2023/09/15 18:29:48;;;;;;;7.50;4.10;;;;;;;22.17;63.23;100387.25;4917104;29;20275;-77
2023/09/15 18:32:16;;;;;;;8.23;4.65;;;;;;;22.12;63.69;100399.59;4917709;29;20819;-76
2023/09/15 18:34:44;;;;;;;10.40;4.70;;;;;;;22.11;63.71;100389.81;4918496;29;20204;-77
2023/09/15 18:37:12;;;;;;;6.87;4.27;;;;;;;22.10;64.34;100395.44;4917127;29;20213;-75
2023/09/15 18:39:40;;;;;;;7.27;4.63;;;;;;;22.06;64.12;100397.78;4922049;29;20227;-78
2023/09/15 18:42:08;;;;;;;7.57;5.00;;;;;;;22.04;64.85;100396.34;4918833;29;20248;-74
2023/09/15 18:44:37;;;;;;;9.65;4.65;;;;;;;22.02;64.67;100391.16;4920201;29;20811;-80
2023/09/15 18:47:06;;;;;;;12.67;5.30;;;;;;;21.98;65.18;100390.00;4920868;29;20569;-77
2023/09/15 18:49:38;;;;;;;7.43;5.13;;;;;;;21.99;65.14;100398.88;4922166;29;20241;-78
2023/09/15 18:52:06;;;;;;;12.37;5.27;;;;;;;21.95;65.34;100393.09;4922103;29;20213;-76
2023/09/15 18:54:35;;;;;;;9.90;5.10;;;;;;;21.94;65.56;100387.91;4925335;29;20217;-77
2023/09/15 18:57:03;;;;;;;12.20;5.83;;;;;;;21.92;65.90;100396.22;4921625;29;20663;-74
2023/09/15 18:59:32;;;;;;;8.93;5.43;;;;;;;21.89;66.06;100396.69;4921123;29;20287;-81
2023/09/15 19:02:02;;;;;;;6.93;5.13;;;;;;;21.87;66.04;100395.25;4916758;29;20235;-82
2023/09/15 19:04:30;;;;;;;8.97;5.27;;;;;;;21.85;66.12;100403.59;4918969;29;20201;-80
2023/09/15 19:06:58;;;;;;;8.43;5.13;;;;;;;21.81;66.31;100397.00;4919765;29;20212;-80
2023/09/15 19:09:26;;;;;;;10.03;5.60;;;;;;;21.81;65.98;100397.00;4918548;29;20213;-79
2023/09/15 19:11:55;;;;;;;9.80;5.20;;;;;;;21.80;66.08;100395.34;4920185;29;20569;-77
2023/09/15 19:14:24;;;;;;;9.50;5.40;;;;;;;21.78;66.45;100392.03;4918293;29;21077;-77
2023/09/15 19:16:53;;;;;;;8.70;5.20;;;;;;;21.75;66.42;100390.59;4918846;29;20208;-79
2023/09/15 19:19:25;;;;;;;7.90;5.23;;;;;;;21.73;66.25;100381.88;4919479;29;20841;-79
2023/09/15 19:21:57;;;;;;;10.37;5.77;;;;;;;21.68;66.81;100376.34;4923141;29;20219;-76
2023/09/15 19:24:29;;;;;;;13.87;6.73;;;;;;;21.65;67.35;100384.06;4932679;29;20745;-76
2023/09/15 19:27:11;;;;;;;8.40;5.83;;;;;;;21.59;66.86;100387.66;4923845;29;20227;-77
2023/09/15 19:29:54;;;;;;;;;;;;;;;;;;;;;
2023/09/15 19:32:47;;;;;;;11.60;5.97;;;;;;;21.53;66.81;100380.44;4926476;29;20774;-74
2023/09/15 19:35:26;;;;;;;6.87;5.20;;;;;;;21.50;66.51;100380.88;4929201;29;20213;-77
2023/09/15 19:38:09;;;;;;;8.37;5.10;;;;;;;21.50;66.75;100381.72;4931977;28;20223;-70
2023/09/15 19:47:31;;;;;;;7.90;4.70;;;;;;;21.48;67.37;100382.97;4822052;29;20334;-80
2023/09/15 19:50:41;;;;;;;6.60;4.93;;;;;;;21.47;67.02;100376.75;4843898;29;20246;-79
2023/09/15 19:56:08;;;;;;;7.03;4.27;;;;;;;21.44;67.39;100379.06;4930163;29;20669;-76
2023/09/15 19:59:06;;;;;;;7.03;5.30;;;;;;;21.43;67.38;100375.56;4936311;29;20213;-69
2023/09/15 20:01:41;;;;;;;8.40;5.23;;;;;;;21.40;67.38;100371.41;4929423;29;20307;-76
2023/09/15 20:10:41;;;;;;;7.70;4.97;;;;;;;21.33;67.98;100376.06;4918490;29;20796;-74
2023/09/15 20:23:31;;;;;;;8.77;5.87;;;;;;;21.19;69.00;100374.53;4919029;29;20204;-75
2023/09/15 20:26:22;;;;;;;10.83;6.07;;;;;;;21.19;68.98;100376.38;4922439;28;20647;-76
2023/09/15 20:29:07;;;;;;;9.17;6.53;;;;;;;21.19;68.82;100374.53;4927237;29;20219;-75
2023/09/15 20:31:39;;;;;;;12.53;5.47;;;;;;;21.12;69.36;100376.38;4929887;29;20746;-73
2023/09/15 20:34:34;;;;;;;9.63;6.37;;;;;;;21.10;69.23;100375.81;4934819;29;20208;-78
2023/09/15 20:37:12;;;;;;;12.10;5.50;;;;;;;21.09;69.61;100384.94;4936234;29;20253;-80
2023/09/15 20:40:20;;;;;;;11.67;6.13;;;;;;;21.09;69.25;100384.94;4940002;29;20212;-77